General Salgado, Brazil
Current Conditions -  °F | °C
As of 7:00 PM on Thursday 18 Dec 2014 (Local Time) from SBSR Reporting Station
Few Clouds Few Clouds  
Wind Chill: 88°   Ceiling: Unl
Heat Index: 89°   Visibility: 6mi
Dew Point: 64°   Wind: 8mph
Humidity: 46%   Direction: 240°WSW
Pressure: 29.77"   Gusts: NA
Location:  20.65°S, 50.37°W
Report Text: SBSR 182100Z 24007KT 9999 FEW040TCU 31/18 Q1008
Loading
Personal Weather Stations






























Interactive Weather Map New forecast layout! Learn more

10-Day Weather Forecast

Advertisements
Track Severe Weather on mobile